sensor_id;sensor_type;location;lat;lon;timestamp;pressure;altitude;pressure_sealevel;temperature;humidity
8061;BME280;4073;42.626;25.386;2023-05-24T00:00:13;96933.63;;;14.49;100.00
8061;BME280;4073;42.626;25.386;2023-05-24T00:02:40;96926.34;;;14.49;100.00
8061;BME280;4073;42.626;25.386;2023-05-24T00:05:08;96931.72;;;14.49;100.00
8061;BME280;4073;42.626;25.386;2023-05-24T00:07:34;96927.72;;;14.47;100.00
8061;BME280;4073;42.626;25.386;2023-05-24T00:10:00;96922.94;;;14.44;100.00
8061;BME280;4073;42.626;25.386;2023-05-24T00:12:26;96917.38;;;14.40;100.00
8061;BME280;4073;42.626;25.386;2023-05-24T00:14:51;96910.34;;;14.31;100.00
8061;BME280;4073;42.626;25.386;2023-05-24T00:17:17;96911.41;;;14.30;100.00
8061;BME280;4073;42.626;25.386;2023-05-24T00:19:42;96914.00;;;14.21;100.00
8061;BME280;4073;42.626;25.386;2023-05-24T00:22:08;96913.22;;;14.21;100.00
8061;BME280;4073;42.626;25.386;2023-05-24T00:24:33;96911.91;;;14.18;100.00
8061;BME280;4073;42.626;25.386;2023-05-24T00:26:59;96915.09;;;14.20;100.00
8061;BME280;4073;42.626;25.386;2023-05-24T00:29:27;96908.72;;;14.16;100.00
8061;BME280;4073;42.626;25.386;2023-05-24T00:31:52;96918.19;;;14.14;100.00
8061;BME280;4073;42.626;25.386;2023-05-24T00:34:18;96916.00;;;14.16;100.00
8061;BME280;4073;42.626;25.386;2023-05-24T00:36:43;96915.59;;;14.09;100.00
8061;BME280;4073;42.626;25.386;2023-05-24T00:39:09;96920.28;;;14.03;100.00
8061;BME280;4073;42.626;25.386;2023-05-24T00:41:34;96917.78;;;13.93;100.00
8061;BME280;4073;42.626;25.386;2023-05-24T00:44:00;96921.28;;;13.94;100.00
8061;BME280;4073;42.626;25.386;2023-05-24T00:46:31;96909.72;;;13.93;100.00
8061;BME280;4073;42.626;25.386;2023-05-24T00:48:57;96912.53;;;13.88;100.00
8061;BME280;4073;42.626;25.386;2023-05-24T00:51:24;96918.19;;;13.87;100.00
8061;BME280;4073;42.626;25.386;2023-05-24T00:53:51;96918.19;;;13.87;100.00
8061;BME280;4073;42.626;25.386;2023-05-24T00:56:17;96917.28;;;13.78;100.00
8061;BME280;4073;42.626;25.386;2023-05-24T00:58:44;96905.16;;;13.80;100.00
8061;BME280;4073;42.626;25.386;2023-05-24T01:01:10;96907.81;;;13.80;100.00
8061;BME280;4073;42.626;25.386;2023-05-24T01:03:36;96914.00;;;13.81;100.00
8061;BME280;4073;42.626;25.386;2023-05-24T01:06:03;96913.72;;;13.82;100.00
8061;BME280;4073;42.626;25.386;2023-05-24T01:11:03;96911.44;;;13.89;100.00
8061;BME280;4073;42.626;25.386;2023-05-24T01:16:42;96891.00;;;13.75;100.00
8061;BME280;4073;42.626;25.386;2023-05-24T01:19:39;96899.56;;;13.63;100.00
8061;BME280;4073;42.626;25.386;2023-05-24T01:27:20;96906.00;;;13.49;100.00
8061;BME280;4073;42.626;25.386;2023-05-24T01:29:47;96901.91;;;13.38;100.00
8061;BME280;4073;42.626;25.386;2023-05-24T01:32:18;96910.38;;;13.45;100.00
8061;BME280;4073;42.626;25.386;2023-05-24T01:34:44;96918.72;;;13.43;100.00
8061;BME280;4073;42.626;25.386;2023-05-24T01:37:09;96915.63;;;13.36;100.00
8061;BME280;4073;42.626;25.386;2023-05-24T01:39:35;96908.72;;;13.17;100.00
8061;BME280;4073;42.626;25.386;2023-05-24T01:44:45;96913.84;;;12.99;100.00
8061;BME280;4073;42.626;25.386;2023-05-24T01:47:38;96927.25;;;12.99;100.00
8061;BME280;4073;42.626;25.386;2023-05-24T01:50:24;96917.94;;;12.92;100.00
8061;BME280;4073;42.626;25.386;2023-05-24T01:52:51;96925.50;;;12.90;100.00
8061;BME280;4073;42.626;25.386;2023-05-24T01:55:17;96918.81;;;12.87;100.00
8061;BME280;4073;42.626;25.386;2023-05-24T01:57:45;96917.75;;;12.88;100.00
8061;BME280;4073;42.626;25.386;2023-05-24T02:00:17;96912.09;;;12.90;100.00
8061;BME280;4073;42.626;25.386;2023-05-24T02:02:43;96907.78;;;12.89;100.00
8061;BME280;4073;42.626;25.386;2023-05-24T02:05:09;96908.69;;;12.84;100.00
8061;BME280;4073;42.626;25.386;2023-05-24T02:07:36;96902.00;;;12.82;100.00
8061;BME280;4073;42.626;25.386;2023-05-24T02:10:02;96911.13;;;12.81;100.00
8061;BME280;4073;42.626;25.386;2023-05-24T02:12:28;96915.22;;;12.78;100.00
8061;BME280;4073;42.626;25.386;2023-05-24T02:14:53;96919.00;;;12.77;100.00
8061;BME280;4073;42.626;25.386;2023-05-24T02:17:19;96914.06;;;12.66;100.00
8061;BME280;4073;42.626;25.386;2023-05-24T02:19:44;96917.75;;;12.51;100.00
8061;BME280;4073;42.626;25.386;2023-05-24T02:22:10;96912.97;;;12.48;100.00
8061;BME280;4073;42.626;25.386;2023-05-24T02:24:36;96924.25;;;12.45;100.00
8061;BME280;4073;42.626;25.386;2023-05-24T02:27:02;96917.66;;;12.38;100.00
8061;BME280;4073;42.626;25.386;2023-05-24T02:29:28;96919.28;;;12.39;100.00
8061;BME280;4073;42.626;25.386;2023-05-24T02:31:53;96915.69;;;12.43;100.00
8061;BME280;4073;42.626;25.386;2023-05-24T02:34:22;96916.22;;;12.45;100.00
8061;BME280;4073;42.626;25.386;2023-05-24T02:36:48;96921.53;;;12.50;100.00
8061;BME280;4073;42.626;25.386;2023-05-24T02:39:14;96909.00;;;12.46;100.00
8061;BME280;4073;42.626;25.386;2023-05-24T02:41:39;96921.44;;;12.55;100.00
8061;BME280;4073;42.626;25.386;2023-05-24T02:44:05;96928.81;;;12.63;100.00
8061;BME280;4073;42.626;25.386;2023-05-24T02:46:31;96925.94;;;12.60;100.00
8061;BME280;4073;42.626;25.386;2023-05-24T02:48:57;96912.81;;;12.58;100.00
8061;BME280;4073;42.626;25.386;2023-05-24T02:51:22;96918.84;;;12.69;100.00
8061;BME280;4073;42.626;25.386;2023-05-24T02:53:48;96920.78;;;12.63;100.00
8061;BME280;4073;42.626;25.386;2023-05-24T02:56:14;96927.31;;;12.76;100.00
8061;BME280;4073;42.626;25.386;2023-05-24T02:58:42;96936.16;;;12.76;100.00
8061;BME280;4073;42.626;25.386;2023-05-24T03:01:10;96930.59;;;12.73;100.00
8061;BME280;4073;42.626;25.386;2023-05-24T03:03:37;96932.53;;;12.67;100.00
8061;BME280;4073;42.626;25.386;2023-05-24T03:06:04;96929.34;;;12.65;100.00
8061;BME280;4073;42.626;25.386;2023-05-24T03:08:31;96926.56;;;12.70;100.00
8061;BME280;4073;42.626;25.386;2023-05-24T03:10:57;96936.44;;;12.75;100.00
8061;BME280;4073;42.626;25.386;2023-05-24T03:13:22;96934.19;;;12.82;100.00
8061;BME280;4073;42.626;25.386;2023-05-24T03:15:48;96942.19;;;12.87;100.00
8061;BME280;4073;42.626;25.386;2023-05-24T03:18:13;96943.19;;;12.91;100.00
8061;BME280;4073;42.626;25.386;2023-05-24T03:20:38;96943.41;;;12.94;100.00
8061;BME280;4073;42.626;25.386;2023-05-24T03:23:04;96946.03;;;12.99;100.00
8061;BME280;4073;42.626;25.386;2023-05-24T03:25:29;96944.06;;;13.05;100.00
8061;BME280;4073;42.626;25.386;2023-05-24T03:27:55;96941.66;;;13.03;100.00
8061;BME280;4073;42.626;25.386;2023-05-24T03:30:20;96942.69;;;13.07;100.00
8061;BME280;4073;42.626;25.386;2023-05-24T03:32:46;96940.69;;;13.13;100.00
8061;BME280;4073;42.626;25.386;2023-05-24T03:35:11;96952.75;;;13.16;100.00
8061;BME280;4073;42.626;25.386;2023-05-24T03:37:37;96946.53;;;13.20;100.00
8061;BME280;4073;42.626;25.386;2023-05-24T03:40:03;96954.06;;;13.18;100.00
8061;BME280;4073;42.626;25.386;2023-05-24T03:42:29;96948.13;;;13.02;100.00
8061;BME280;4073;42.626;25.386;2023-05-24T03:44:54;96954.44;;;13.12;100.00
8061;BME280;4073;42.626;25.386;2023-05-24T03:47:20;96950.84;;;13.16;100.00
8061;BME280;4073;42.626;25.386;2023-05-24T03:49:46;96949.69;;;13.22;100.00
8061;BME280;4073;42.626;25.386;2023-05-24T03:52:11;96953.31;;;13.31;100.00
8061;BME280;4073;42.626;25.386;2023-05-24T03:54:37;96961.78;;;13.38;100.00
8061;BME280;4073;42.626;25.386;2023-05-24T03:57:02;96966.00;;;13.44;100.00
8061;BME280;4073;42.626;25.386;2023-05-24T03:59:28;96961.03;;;13.51;100.00
8061;BME280;4073;42.626;25.386;2023-05-24T04:01:55;96955.50;;;13.61;100.00
8061;BME280;4073;42.626;25.386;2023-05-24T04:04:20;96963.38;;;13.71;100.00
8061;BME280;4073;42.626;25.386;2023-05-24T04:06:46;96968.56;;;13.81;100.00
8061;BME280;4073;42.626;25.386;2023-05-24T04:09:12;96976.63;;;13.95;100.00
8061;BME280;4073;42.626;25.386;2023-05-24T04:11:37;96985.50;;;14.09;100.00
8061;BME280;4073;42.626;25.386;2023-05-24T04:14:03;96982.59;;;14.19;100.00
8061;BME280;4073;42.626;25.386;2023-05-24T04:16:29;96982.44;;;14.29;100.00
8061;BME280;4073;42.626;25.386;2023-05-24T04:18:58;96976.97;;;14.34;100.00
8061;BME280;4073;42.626;25.386;2023-05-24T04:21:25;96976.84;;;14.39;100.00
8061;BME280;4073;42.626;25.386;2023-05-24T04:23:51;96981.72;;;14.50;100.00
8061;BME280;4073;42.626;25.386;2023-05-24T04:26:16;96981.31;;;14.57;100.00
8061;BME280;4073;42.626;25.386;2023-05-24T04:28:42;96973.84;;;14.67;100.00
8061;BME280;4073;42.626;25.386;2023-05-24T04:31:07;96979.31;;;14.76;100.00
8061;BME280;4073;42.626;25.386;2023-05-24T04:33:35;96963.31;;;14.79;100.00
8061;BME280;4073;42.626;25.386;2023-05-24T04:36:01;96971.72;;;14.78;100.00
8061;BME280;4073;42.626;25.386;2023-05-24T04:38:27;96964.44;;;14.78;100.00
8061;BME280;4073;42.626;25.386;2023-05-24T04:41:01;96965.25;;;14.79;100.00
8061;BME280;4073;42.626;25.386;2023-05-24T04:43:27;96986.13;;;14.95;100.00
8061;BME280;4073;42.626;25.386;2023-05-24T04:45:53;96977.66;;;15.02;100.00
8061;BME280;4073;42.626;25.386;2023-05-24T04:48:20;96977.41;;;15.12;100.00
8061;BME280;4073;42.626;25.386;2023-05-24T04:50:51;96978.94;;;15.26;100.00
8061;BME280;4073;42.626;25.386;2023-05-24T04:53:18;96970.63;;;15.36;100.00
8061;BME280;4073;42.626;25.386;2023-05-24T04:55:43;96980.25;;;15.51;100.00
8061;BME280;4073;42.626;25.386;2023-05-24T04:58:09;96987.63;;;15.68;100.00
8061;BME280;4073;42.626;25.386;2023-05-24T05:00:34;96971.50;;;15.76;100.00
8061;BME280;4073;42.626;25.386;2023-05-24T05:03:00;96974.91;;;15.82;100.00
8061;BME280;4073;42.626;25.386;2023-05-24T05:05:25;96981.31;;;15.94;100.00
8061;BME280;4073;42.626;25.386;2023-05-24T05:07:51;96991.16;;;15.99;100.00
8061;BME280;4073;42.626;25.386;2023-05-24T05:10:16;96975.94;;;16.03;100.00
8061;BME280;4073;42.626;25.386;2023-05-24T05:12:42;96986.28;;;16.09;100.00
8061;BME280;4073;42.626;25.386;2023-05-24T05:15:09;96974.41;;;16.19;100.00
8061;BME280;4073;42.626;25.386;2023-05-24T05:17:34;96983.53;;;16.31;100.00
8061;BME280;4073;42.626;25.386;2023-05-24T05:20:01;96984.69;;;16.47;100.00
8061;BME280;4073;42.626;25.386;2023-05-24T05:22:26;96990.44;;;16.63;100.00
8061;BME280;4073;42.626;25.386;2023-05-24T05:24:52;96996.53;;;16.77;100.00
8061;BME280;4073;42.626;25.386;2023-05-24T05:27:17;96989.41;;;16.89;100.00
8061;BME280;4073;42.626;25.386;2023-05-24T05:29:43;96990.50;;;16.97;100.00
8061;BME280;4073;42.626;25.386;2023-05-24T05:32:08;96990.88;;;17.04;100.00
8061;BME280;4073;42.626;25.386;2023-05-24T05:34:34;96994.53;;;17.16;100.00
8061;BME280;4073;42.626;25.386;2023-05-24T05:36:59;96985.59;;;17.33;100.00
8061;BME280;4073;42.626;25.386;2023-05-24T05:39:25;96987.38;;;17.46;100.00
8061;BME280;4073;42.626;25.386;2023-05-24T05:41:51;96990.06;;;17.71;100.00
8061;BME280;4073;42.626;25.386;2023-05-24T05:44:16;96990.94;;;17.92;100.00
8061;BME280;4073;42.626;25.386;2023-05-24T05:46:42;97005.34;;;18.14;100.00
8061;BME280;4073;42.626;25.386;2023-05-24T05:49:10;97000.38;;;18.41;100.00
8061;BME280;4073;42.626;25.386;2023-05-24T05:51:36;97006.56;;;18.71;100.00
8061;BME280;4073;42.626;25.386;2023-05-24T05:54:03;97012.69;;;19.09;100.00
8061;BME280;4073;42.626;25.386;2023-05-24T05:56:29;97010.84;;;19.30;100.00
8061;BME280;4073;42.626;25.386;2023-05-24T05:58:55;97011.75;;;19.54;100.00
8061;BME280;4073;42.626;25.386;2023-05-24T06:01:20;97018.72;;;19.76;100.00
8061;BME280;4073;42.626;25.386;2023-05-24T06:03:46;97007.06;;;19.75;100.00
8061;BME280;4073;42.626;25.386;2023-05-24T06:06:11;97009.00;;;19.75;100.00
8061;BME280;4073;42.626;25.386;2023-05-24T06:08:37;97022.81;;;19.82;100.00
8061;BME280;4073;42.626;25.386;2023-05-24T06:11:05;97021.78;;;19.74;100.00
8061;BME280;4073;42.626;25.386;2023-05-24T06:13:30;97019.44;;;19.85;100.00
8061;BME280;4073;42.626;25.386;2023-05-24T06:15:57;97021.81;;;19.86;100.00
8061;BME280;4073;42.626;25.386;2023-05-24T06:18:25;97016.22;;;20.03;100.00
8061;BME280;4073;42.626;25.386;2023-05-24T06:20:52;97026.00;;;20.16;100.00
8061;BME280;4073;42.626;25.386;2023-05-24T06:23:17;97027.06;;;20.48;100.00
8061;BME280;4073;42.626;25.386;2023-05-24T06:25:42;97026.63;;;20.70;94.94
8061;BME280;4073;42.626;25.386;2023-05-24T06:28:08;97022.03;;;20.95;94.92
8061;BME280;4073;42.626;25.386;2023-05-24T06:30:34;97037.69;;;21.25;92.89
8061;BME280;4073;42.626;25.386;2023-05-24T06:32:59;97026.69;;;21.46;90.77
8061;BME280;4073;42.626;25.386;2023-05-24T06:35:25;97021.38;;;21.65;89.48
8061;BME280;4073;42.626;25.386;2023-05-24T06:37:51;97023.09;;;21.97;90.65
8061;BME280;4073;42.626;25.386;2023-05-24T06:40:16;97035.88;;;22.08;88.80
8061;BME280;4073;42.626;25.386;2023-05-24T06:42:42;97030.00;;;22.37;86.88
8061;BME280;4073;42.626;25.386;2023-05-24T06:45:08;97023.72;;;22.49;84.76
8061;BME280;4073;42.626;25.386;2023-05-24T06:47:33;97024.00;;;22.59;82.49
8061;BME280;4073;42.626;25.386;2023-05-24T06:49:59;97019.84;;;22.65;83.02
8061;BME280;4073;42.626;25.386;2023-05-24T06:52:25;97031.50;;;22.97;81.25
8061;BME280;4073;42.626;25.386;2023-05-24T06:54:51;97020.66;;;23.16;81.00
8061;BME280;4073;42.626;25.386;2023-05-24T06:57:16;97024.78;;;23.10;81.75
8061;BME280;4073;42.626;25.386;2023-05-24T06:59:42;97015.91;;;23.29;79.88
8061;BME280;4073;42.626;25.386;2023-05-24T07:02:07;97023.09;;;23.56;78.54
8061;BME280;4073;42.626;25.386;2023-05-24T07:04:32;97013.00;;;23.94;76.03
8061;BME280;4073;42.626;25.386;2023-05-24T07:06:58;97016.94;;;24.16;73.17
8061;BME280;4073;42.626;25.386;2023-05-24T07:09:23;96998.94;;;24.37;71.49
8061;BME280;4073;42.626;25.386;2023-05-24T07:11:49;97018.97;;;24.64;69.71
8061;BME280;4073;42.626;25.386;2023-05-24T07:14:15;97014.38;;;24.71;69.24
8061;BME280;4073;42.626;25.386;2023-05-24T07:16:40;96999.38;;;24.84;67.51
8061;BME280;4073;42.626;25.386;2023-05-24T07:19:05;97006.06;;;25.13;65.44
8061;BME280;4073;42.626;25.386;2023-05-24T07:21:31;96996.56;;;25.07;64.72
8061;BME280;4073;42.626;25.386;2023-05-24T07:23:57;97005.25;;;25.39;64.45
8061;BME280;4073;42.626;25.386;2023-05-24T07:26:22;97003.16;;;25.58;62.50
8061;BME280;4073;42.626;25.386;2023-05-24T07:28:48;97006.84;;;25.69;60.43
8061;BME280;4073;42.626;25.386;2023-05-24T07:31:13;97004.94;;;25.73;59.94
8061;BME280;4073;42.626;25.386;2023-05-24T07:33:39;97000.41;;;25.88;60.11
8061;BME280;4073;42.626;25.386;2023-05-24T07:36:05;96996.25;;;26.01;61.22
8061;BME280;4073;42.626;25.386;2023-05-24T07:38:34;97003.81;;;26.11;62.93
8061;BME280;4073;42.626;25.386;2023-05-24T07:41:01;97009.16;;;26.33;61.26
8061;BME280;4073;42.626;25.386;2023-05-24T07:43:28;97011.84;;;26.30;59.70
8061;BME280;4073;42.626;25.386;2023-05-24T07:45:53;97011.28;;;26.50;59.00
8061;BME280;4073;42.626;25.386;2023-05-24T07:48:19;97011.34;;;26.57;59.31
8061;BME280;4073;42.626;25.386;2023-05-24T07:50:48;97014.91;;;26.61;58.97
8061;BME280;4073;42.626;25.386;2023-05-24T07:53:14;97026.91;;;26.90;58.27
8061;BME280;4073;42.626;25.386;2023-05-24T07:55:40;97014.94;;;27.15;56.80
8061;BME280;4073;42.626;25.386;2023-05-24T07:58:05;97018.78;;;27.04;58.24
8061;BME280;4073;42.626;25.386;2023-05-24T08:00:31;97019.28;;;27.20;56.89
8061;BME280;4073;42.626;25.386;2023-05-24T08:03:01;97016.38;;;27.57;54.40
8061;BME280;4073;42.626;25.386;2023-05-24T08:05:27;97010.91;;;27.60;50.89
8061;BME280;4073;42.626;25.386;2023-05-24T08:07:53;97012.84;;;27.56;50.92
8061;BME280;4073;42.626;25.386;2023-05-24T08:10:19;97012.88;;;27.60;49.25
8061;BME280;4073;42.626;25.386;2023-05-24T08:12:44;97014.69;;;27.31;49.39
8061;BME280;4073;42.626;25.386;2023-05-24T08:15:10;97013.56;;;26.88;51.00
8061;BME280;4073;42.626;25.386;2023-05-24T08:17:37;97009.00;;;27.06;51.35
8061;BME280;4073;42.626;25.386;2023-05-24T08:20:03;96997.41;;;27.27;50.84
8061;BME280;4073;42.626;25.386;2023-05-24T08:22:30;97012.09;;;27.63;52.28
8061;BME280;4073;42.626;25.386;2023-05-24T08:24:56;97007.78;;;27.69;49.98
8061;BME280;4073;42.626;25.386;2023-05-24T08:27:22;97002.56;;;27.39;49.31
8061;BME280;4073;42.626;25.386;2023-05-24T08:29:48;97003.06;;;27.66;45.78
8061;BME280;4073;42.626;25.386;2023-05-24T08:32:13;97009.44;;;27.84;46.95
8061;BME280;4073;42.626;25.386;2023-05-24T08:34:38;97009.94;;;28.03;47.20
8061;BME280;4073;42.626;25.386;2023-05-24T08:37:04;97001.69;;;28.03;45.56
8061;BME280;4073;42.626;25.386;2023-05-24T08:39:30;96995.78;;;28.05;45.46
8061;BME280;4073;42.626;25.386;2023-05-24T08:41:57;97004.47;;;28.21;44.05
8061;BME280;4073;42.626;25.386;2023-05-24T08:44:23;97013.22;;;28.72;43.84
8061;BME280;4073;42.626;25.386;2023-05-24T08:46:49;97009.69;;;29.06;42.96
8061;BME280;4073;42.626;25.386;2023-05-24T08:49:15;97010.06;;;28.84;44.47
8061;BME280;4073;42.626;25.386;2023-05-24T08:51:42;97010.44;;;29.21;42.62
8061;BME280;4073;42.626;25.386;2023-05-24T08:54:09;97006.44;;;29.64;41.37
8061;BME280;4073;42.626;25.386;2023-05-24T08:56:38;97017.47;;;29.64;41.23
8061;BME280;4073;42.626;25.386;2023-05-24T08:59:05;97017.84;;;29.69;39.01
8061;BME280;4073;42.626;25.386;2023-05-24T09:01:31;97013.56;;;29.37;39.27
8061;BME280;4073;42.626;25.386;2023-05-24T09:03:58;97015.16;;;29.13;40.62
8061;BME280;4073;42.626;25.386;2023-05-24T09:06:25;97019.88;;;28.71;40.26
8061;BME280;4073;42.626;25.386;2023-05-24T09:08:51;97015.94;;;28.44;42.26
8061;BME280;4073;42.626;25.386;2023-05-24T09:11:18;97020.50;;;27.98;44.92
8061;BME280;4073;42.626;25.386;2023-05-24T09:13:46;97023.41;;;27.51;43.83
8061;BME280;4073;42.626;25.386;2023-05-24T09:16:12;97019.63;;;27.11;45.56
8061;BME280;4073;42.626;25.386;2023-05-24T09:18:39;97020.94;;;26.77;47.67
8061;BME280;4073;42.626;25.386;2023-05-24T09:21:07;97024.19;;;26.93;47.06
8061;BME280;4073;42.626;25.386;2023-05-24T09:23:34;97029.16;;;27.31;45.80
8061;BME280;4073;42.626;25.386;2023-05-24T09:26:06;97031.41;;;27.77;43.05
8061;BME280;4073;42.626;25.386;2023-05-24T09:28:32;97024.88;;;28.20;41.22
8061;BME280;4073;42.626;25.386;2023-05-24T09:30:59;97018.34;;;28.80;39.84
8061;BME280;4073;42.626;25.386;2023-05-24T09:33:30;97022.97;;;29.50;38.18
8061;BME280;4073;42.626;25.386;2023-05-24T09:36:00;97016.94;;;29.94;35.35
8061;BME280;4073;42.626;25.386;2023-05-24T09:38:26;97015.34;;;29.96;37.07
8061;BME280;4073;42.626;25.386;2023-05-24T09:41:05;97013.03;;;29.91;36.07
8061;BME280;4073;42.626;25.386;2023-05-24T09:43:32;97016.19;;;29.86;36.29
8061;BME280;4073;42.626;25.386;2023-05-24T09:46:01;97010.03;;;29.33;40.73
8061;BME280;4073;42.626;25.386;2023-05-24T09:48:28;96995.50;;;28.48;42.44
8061;BME280;4073;42.626;25.386;2023-05-24T09:51:07;97012.34;;;28.26;44.55
8061;BME280;4073;42.626;25.386;2023-05-24T09:53:35;97013.78;;;27.85;43.33
8061;BME280;4073;42.626;25.386;2023-05-24T09:56:05;97013.44;;;27.90;44.77
8061;BME280;4073;42.626;25.386;2023-05-24T09:58:31;97008.78;;;28.15;43.92
8061;BME280;4073;42.626;25.386;2023-05-24T10:01:07;97001.41;;;28.47;42.30
8061;BME280;4073;42.626;25.386;2023-05-24T10:03:33;97008.91;;;28.92;39.61
8061;BME280;4073;42.626;25.386;2023-05-24T10:05:59;97010.06;;;28.73;39.63
8061;BME280;4073;42.626;25.386;2023-05-24T10:08:26;97009.28;;;28.73;38.86
8061;BME280;4073;42.626;25.386;2023-05-24T10:10:52;97007.69;;;28.68;40.52
8061;BME280;4073;42.626;25.386;2023-05-24T10:13:22;97007.63;;;28.30;41.33
8061;BME280;4073;42.626;25.386;2023-05-24T10:15:47;96996.63;;;28.30;40.69
8061;BME280;4073;42.626;25.386;2023-05-24T10:18:13;97002.13;;;28.23;41.20
8061;BME280;4073;42.626;25.386;2023-05-24T10:20:38;97002.13;;;28.30;41.71
8061;BME280;4073;42.626;25.386;2023-05-24T10:23:08;96998.16;;;28.06;41.85
8061;BME280;4073;42.626;25.386;2023-05-24T10:25:34;97001.59;;;27.82;42.17
8061;BME280;4073;42.626;25.386;2023-05-24T10:28:07;96993.66;;;27.63;43.15
8061;BME280;4073;42.626;25.386;2023-05-24T10:33:03;96995.03;;;28.15;43.69
8061;BME280;4073;42.626;25.386;2023-05-24T10:35:30;96980.94;;;28.30;40.91
8061;BME280;4073;42.626;25.386;2023-05-24T10:37:58;96988.06;;;28.63;38.21
8061;BME280;4073;42.626;25.386;2023-05-24T10:40:24;96982.94;;;28.89;38.59
8061;BME280;4073;42.626;25.386;2023-05-24T10:42:50;96977.03;;;29.05;39.42
8061;BME280;4073;42.626;25.386;2023-05-24T10:45:35;96980.91;;;29.35;37.80
8061;BME280;4073;42.626;25.386;2023-05-24T10:48:07;96979.34;;;29.38;37.58
8061;BME280;4073;42.626;25.386;2023-05-24T10:50:33;96969.84;;;29.53;37.06
8061;BME280;4073;42.626;25.386;2023-05-24T10:58:19;96964.84;;;30.20;32.90
8061;BME280;4073;42.626;25.386;2023-05-24T11:00:45;96944.53;;;30.51;29.60
8061;BME280;4073;42.626;25.386;2023-05-24T11:03:10;96958.00;;;30.42;31.45
8061;BME280;4073;42.626;25.386;2023-05-24T11:08:13;96934.16;;;30.11;33.79
8061;BME280;4073;42.626;25.386;2023-05-24T11:10:38;96962.56;;;29.98;33.34
8061;BME280;4073;42.626;25.386;2023-05-24T11:13:08;96966.81;;;30.16;34.09
8061;BME280;4073;42.626;25.386;2023-05-24T11:15:35;96963.09;;;30.44;33.17
8061;BME280;4073;42.626;25.386;2023-05-24T11:20:34;96961.34;;;31.52;32.30
8061;BME280;4073;42.626;25.386;2023-05-24T11:23:04;96964.09;;;31.52;31.80
8061;BME280;4073;42.626;25.386;2023-05-24T11:25:31;96962.44;;;31.21;32.00
8061;BME280;4073;42.626;25.386;2023-05-24T11:27:58;96961.38;;;30.02;35.48
8061;BME280;4073;42.626;25.386;2023-05-24T11:30:23;96958.84;;;29.49;37.83
8061;BME280;4073;42.626;25.386;2023-05-24T11:32:49;96956.53;;;29.34;37.87
8061;BME280;4073;42.626;25.386;2023-05-24T11:35:14;96956.94;;;29.25;38.40
8061;BME280;4073;42.626;25.386;2023-05-24T11:37:40;96951.47;;;29.01;36.32
8061;BME280;4073;42.626;25.386;2023-05-24T11:40:07;96942.84;;;28.99;37.21
8061;BME280;4073;42.626;25.386;2023-05-24T11:42:36;96944.00;;;29.19;37.28
8061;BME280;4073;42.626;25.386;2023-05-24T11:45:07;96945.50;;;29.44;35.85
8061;BME280;4073;42.626;25.386;2023-05-24T11:47:34;96940.34;;;29.46;36.94
8061;BME280;4073;42.626;25.386;2023-05-24T11:50:01;96937.97;;;29.62;37.01
8061;BME280;4073;42.626;25.386;2023-05-24T11:52:26;96943.09;;;29.53;36.57
8061;BME280;4073;42.626;25.386;2023-05-24T11:54:51;96926.16;;;29.65;36.45
8061;BME280;4073;42.626;25.386;2023-05-24T11:57:25;96924.16;;;29.59;36.32
8061;BME280;4073;42.626;25.386;2023-05-24T11:59:53;96926.66;;;29.29;37.54
8061;BME280;4073;42.626;25.386;2023-05-24T12:02:19;96936.53;;;28.98;36.51
8061;BME280;4073;42.626;25.386;2023-05-24T12:04:45;96927.16;;;28.54;39.34
8061;BME280;4073;42.626;25.386;2023-05-24T12:07:10;96928.34;;;28.46;37.02
8061;BME280;4073;42.626;25.386;2023-05-24T12:09:36;96925.94;;;28.16;39.64
8061;BME280;4073;42.626;25.386;2023-05-24T12:12:02;96927.50;;;28.38;39.26
8061;BME280;4073;42.626;25.386;2023-05-24T12:14:29;96920.50;;;28.48;39.21
8061;BME280;4073;42.626;25.386;2023-05-24T12:16:57;96915.75;;;28.73;37.58
8061;BME280;4073;42.626;25.386;2023-05-24T12:19:24;96911.03;;;28.73;35.74
8061;BME280;4073;42.626;25.386;2023-05-24T12:21:56;96911.03;;;28.77;36.92
8061;BME280;4073;42.626;25.386;2023-05-24T12:24:23;96915.34;;;28.92;35.79
8061;BME280;4073;42.626;25.386;2023-05-24T12:26:49;96896.47;;;28.83;36.66
8061;BME280;4073;42.626;25.386;2023-05-24T12:29:15;96910.16;;;29.25;35.15
8061;BME280;4073;42.626;25.386;2023-05-24T12:31:43;96904.59;;;29.43;35.14
8061;BME280;4073;42.626;25.386;2023-05-24T12:34:13;96916.28;;;29.68;34.00
8061;BME280;4073;42.626;25.386;2023-05-24T12:36:39;96917.75;;;29.90;33.52
8061;BME280;4073;42.626;25.386;2023-05-24T12:39:24;96925.59;;;29.95;32.57
8061;BME280;4073;42.626;25.386;2023-05-24T12:41:56;96926.44;;;29.85;38.28
8061;BME280;4073;42.626;25.386;2023-05-24T12:44:29;96931.72;;;29.41;45.04
8061;BME280;4073;42.626;25.386;2023-05-24T12:46:56;96929.88;;;28.85;47.42
8061;BME280;4073;42.626;25.386;2023-05-24T12:49:22;96932.59;;;28.12;49.73
8061;BME280;4073;42.626;25.386;2023-05-24T12:51:49;96930.47;;;27.56;51.47
8061;BME280;4073;42.626;25.386;2023-05-24T12:54:17;96917.31;;;27.11;54.37
8061;BME280;4073;42.626;25.386;2023-05-24T12:56:43;96928.34;;;26.60;57.07
8061;BME280;4073;42.626;25.386;2023-05-24T12:59:08;96924.03;;;26.16;58.92
8061;BME280;4073;42.626;25.386;2023-05-24T13:01:34;96934.69;;;25.88;61.12
8061;BME280;4073;42.626;25.386;2023-05-24T13:03:59;96936.56;;;25.80;63.01
8061;BME280;4073;42.626;25.386;2023-05-24T13:06:25;96928.50;;;25.61;62.83
8061;BME280;4073;42.626;25.386;2023-05-24T13:08:51;96920.44;;;25.75;63.76
8061;BME280;4073;42.626;25.386;2023-05-24T13:11:16;96928.03;;;25.89;60.12
8061;BME280;4073;42.626;25.386;2023-05-24T13:13:42;96923.81;;;25.95;60.00
8061;BME280;4073;42.626;25.386;2023-05-24T13:16:08;96930.66;;;25.78;58.13
8061;BME280;4073;42.626;25.386;2023-05-24T13:18:35;96929.38;;;25.69;58.31
8061;BME280;4073;42.626;25.386;2023-05-24T13:21:02;96920.06;;;25.77;56.79
8061;BME280;4073;42.626;25.386;2023-05-24T13:23:30;96928.25;;;26.06;56.97
8061;BME280;4073;42.626;25.386;2023-05-24T13:25:56;96923.84;;;26.38;54.48
8061;BME280;4073;42.626;25.386;2023-05-24T13:28:21;96924.44;;;26.65;54.36